createdAt,value
2022-11-23T00:02:01.829Z,93
2022-11-23T00:05:26.985Z,93
2022-11-23T00:08:52.187Z,93
2022-11-23T00:12:17.497Z,93
2022-11-23T00:15:42.567Z,93
2022-11-23T00:19:07.774Z,92
2022-11-23T00:22:33.014Z,92
2022-11-23T00:25:58.274Z,92
2022-11-23T00:29:23.525Z,92
2022-11-23T00:32:48.767Z,92
2022-11-23T00:36:13.963Z,92
2022-11-23T00:39:39.188Z,92
2022-11-23T00:43:04.425Z,92
2022-11-23T00:46:29.691Z,92
2022-11-23T00:49:54.908Z,92
2022-11-23T00:53:20.146Z,92
2022-11-23T00:56:45.379Z,92
2022-11-23T01:00:10.596Z,92
2022-11-23T01:03:35.850Z,92
2022-11-23T01:07:01.053Z,92
2022-11-23T01:10:26.278Z,92
2022-11-23T01:13:51.505Z,92
2022-11-23T01:17:16.778Z,92
2022-11-23T01:20:41.987Z,92
2022-11-23T01:24:07.194Z,92
2022-11-23T01:27:32.439Z,93
2022-11-23T01:30:57.643Z,92
2022-11-23T01:34:22.893Z,93
2022-11-23T01:37:48.145Z,93
2022-11-23T01:41:13.356Z,93
2022-11-23T01:44:38.581Z,92
2022-11-23T01:48:03.810Z,92
2022-11-23T01:51:29.052Z,92
2022-11-23T01:54:54.318Z,92
2022-11-23T01:58:19.560Z,92
2022-11-23T02:01:44.837Z,92
2022-11-23T02:05:10.044Z,92
2022-11-23T02:08:35.289Z,92
2022-11-23T02:12:00.531Z,92
2022-11-23T02:15:25.723Z,91
2022-11-23T02:18:50.974Z,92
2022-11-23T02:22:16.196Z,92
2022-11-23T02:25:41.473Z,92
2022-11-23T02:29:06.707Z,92
2022-11-23T02:32:31.902Z,92
2022-11-23T02:35:57.115Z,92
2022-11-23T02:39:22.348Z,91
2022-11-23T02:42:47.585Z,92
2022-11-23T02:46:12.830Z,92
2022-11-23T02:49:38.023Z,92
2022-11-23T02:53:03.265Z,91
2022-11-23T02:56:28.549Z,91
2022-11-23T02:59:53.761Z,91
2022-11-23T03:03:19.038Z,92
2022-11-23T03:06:44.242Z,92
2022-11-23T03:10:09.465Z,92
2022-11-23T03:13:34.724Z,92
2022-11-23T03:16:59.961Z,92
2022-11-23T03:20:25.251Z,92
2022-11-23T03:23:50.459Z,92
2022-11-23T03:27:15.694Z,93
2022-11-23T03:30:40.919Z,93
2022-11-23T03:34:06.145Z,93
2022-11-23T03:37:31.438Z,93
2022-11-23T03:40:56.640Z,93
2022-11-23T03:44:21.873Z,93
2022-11-23T03:47:47.129Z,92
2022-11-23T03:51:12.356Z,92
2022-11-23T03:54:37.643Z,92
2022-11-23T03:58:02.888Z,92
2022-11-23T04:01:28.158Z,92
2022-11-23T04:04:53.353Z,92
2022-11-23T04:08:18.595Z,93
2022-11-23T04:11:43.860Z,92
2022-11-23T04:15:09.041Z,92
2022-11-23T04:18:34.279Z,92
2022-11-23T04:21:59.541Z,92
2022-11-23T04:25:24.777Z,92
2022-11-23T04:28:50.036Z,92
2022-11-23T04:32:15.249Z,92
2022-11-23T04:35:40.495Z,93
2022-11-23T04:39:05.737Z,93
2022-11-23T04:42:30.978Z,92
2022-11-23T04:45:56.228Z,93
2022-11-23T04:49:21.446Z,92
2022-11-23T04:52:46.712Z,92
2022-11-23T04:56:11.962Z,92
2022-11-23T04:59:37.204Z,92
2022-11-23T05:03:02.503Z,92
2022-11-23T05:06:27.686Z,92
2022-11-23T05:09:52.892Z,92
2022-11-23T05:13:18.128Z,92
2022-11-23T05:16:43.369Z,92
2022-11-23T05:20:08.616Z,92
2022-11-23T05:23:33.822Z,92
2022-11-23T05:26:59.060Z,92
2022-11-23T05:30:24.303Z,92
2022-11-23T05:33:49.552Z,92
2022-11-23T05:37:14.805Z,92
2022-11-23T05:40:40.003Z,92
2022-11-23T05:44:05.236Z,92
2022-11-23T05:47:30.473Z,92
2022-11-23T05:50:57.712Z,92
2022-11-23T05:54:20.966Z,92
2022-11-23T05:57:46.193Z,92
2022-11-23T06:01:11.406Z,92
2022-11-23T06:04:36.609Z,92
2022-11-23T06:08:01.849Z,92
2022-11-23T06:11:27.108Z,92
2022-11-23T06:14:52.395Z,92
2022-11-23T06:18:17.612Z,91
2022-11-23T06:21:46.171Z,91
2022-11-23T06:25:08.069Z,92
2022-11-23T06:28:33.315Z,92
2022-11-23T06:31:58.511Z,92
2022-11-23T06:35:23.742Z,91
2022-11-23T06:38:48.979Z,92
2022-11-23T06:42:37.585Z,92
2022-11-23T06:45:39.460Z,92
2022-11-23T06:49:04.706Z,92
2022-11-23T06:52:29.896Z,91
2022-11-23T06:55:55.115Z,91
2022-11-23T06:59:20.344Z,91
2022-11-23T07:02:45.605Z,91
2022-11-23T07:06:10.819Z,90
2022-11-23T07:09:36.063Z,90
2022-11-23T07:13:01.287Z,90
2022-11-23T07:16:26.507Z,90
2022-11-23T07:19:51.755Z,90
2022-11-23T07:23:16.954Z,90
2022-11-23T07:26:42.164Z,90
2022-11-23T07:30:07.421Z,90
2022-11-23T07:33:32.646Z,90
2022-11-23T07:37:01.756Z,91
2022-11-23T07:40:23.128Z,91
2022-11-23T07:43:48.332Z,91
2022-11-23T07:47:13.579Z,91
2022-11-23T07:50:38.836Z,91
2022-11-23T07:54:04.112Z,91
2022-11-23T07:57:29.390Z,90
2022-11-23T08:00:54.588Z,90
2022-11-23T08:04:19.878Z,90
2022-11-23T08:07:45.166Z,90
2022-11-23T08:11:10.371Z,90
2022-11-23T08:14:35.836Z,90
2022-11-23T08:18:00.869Z,91
2022-11-23T08:21:26.091Z,90
2022-11-23T08:24:51.386Z,90
2022-11-23T08:28:16.644Z,90
2022-11-23T08:31:41.861Z,90
2022-11-23T08:35:07.093Z,90
2022-11-23T08:38:32.302Z,90
2022-11-23T08:41:58.018Z,90
2022-11-23T08:45:23.243Z,90
2022-11-23T08:48:48.447Z,89
2022-11-23T08:52:13.652Z,89
2022-11-23T08:55:38.847Z,89
2022-11-23T08:59:04.055Z,89
2022-11-23T09:02:29.285Z,89
2022-11-23T09:05:54.495Z,89
2022-11-23T09:09:19.707Z,89
2022-11-23T09:12:44.940Z,90
2022-11-23T09:16:10.135Z,89
2022-11-23T09:19:35.362Z,89
2022-11-23T09:23:00.556Z,88
2022-11-23T09:26:25.753Z,89
2022-11-23T09:29:50.979Z,89
2022-11-23T09:33:16.190Z,89
2022-11-23T09:36:41.442Z,89
2022-11-23T09:40:06.723Z,88
2022-11-23T09:43:31.941Z,88
2022-11-23T09:46:57.153Z,89
2022-11-23T09:50:22.339Z,89
2022-11-23T09:53:47.570Z,90
2022-11-23T09:57:12.743Z,90
2022-11-23T10:00:37.927Z,90
2022-11-23T10:04:03.135Z,90
2022-11-23T10:07:28.370Z,89
2022-11-23T10:10:53.549Z,89
2022-11-23T10:14:18.793Z,89
2022-11-23T10:17:44.009Z,89
2022-11-23T10:21:09.234Z,89
2022-11-23T10:24:34.847Z,90
2022-11-23T10:27:59.663Z,90
2022-11-23T10:31:24.846Z,90
2022-11-23T10:34:50.049Z,88
2022-11-23T10:38:18.630Z,88
2022-11-23T10:41:40.463Z,88
2022-11-23T10:45:05.717Z,88
2022-11-23T10:48:30.914Z,88
2022-11-23T10:51:56.135Z,88
2022-11-23T10:55:21.337Z,88
2022-11-23T10:58:46.555Z,88
2022-11-23T11:02:11.818Z,88
2022-11-23T11:06:07.877Z,87
2022-11-23T11:09:08.456Z,87
2022-11-23T11:12:30.364Z,87
2022-11-23T11:15:55.564Z,87
2022-11-23T11:19:20.797Z,88
2022-11-23T11:22:47.855Z,87
2022-11-23T11:26:11.219Z,87
2022-11-23T11:29:38.865Z,87
2022-11-23T11:33:01.631Z,86
2022-11-23T11:36:26.836Z,87
2022-11-23T11:39:52.051Z,87
2022-11-23T11:43:17.264Z,87
2022-11-23T11:46:42.479Z,88
2022-11-23T11:50:07.665Z,87
2022-11-23T11:53:32.916Z,87
2022-11-23T11:56:58.130Z,86
2022-11-23T12:00:23.308Z,87
2022-11-23T12:03:48.559Z,85
2022-11-23T12:07:13.837Z,86
2022-11-23T12:10:38.996Z,86
2022-11-23T12:14:04.186Z,86
2022-11-23T12:17:33.502Z,87
2022-11-23T12:20:54.581Z,87
2022-11-23T12:24:19.797Z,87
2022-11-23T12:27:48.438Z,87
2022-11-23T12:31:10.227Z,86
2022-11-23T12:34:35.630Z,86
2022-11-23T12:38:00.687Z,87
2022-11-23T12:41:25.877Z,86
2022-11-23T12:44:51.108Z,85
2022-11-23T12:48:16.327Z,86
2022-11-23T12:51:41.558Z,87
2022-11-23T12:55:07.576Z,87
2022-11-23T12:58:32.858Z,87
2022-11-23T13:01:58.510Z,87
2022-11-23T13:05:23.718Z,87
2022-11-23T13:08:49.008Z,86
2022-11-23T13:12:14.264Z,86
2022-11-23T13:15:39.523Z,87
2022-11-23T13:19:05.230Z,86
2022-11-23T13:22:30.064Z,87
2022-11-23T13:25:55.323Z,86
2022-11-23T13:29:20.582Z,87
2022-11-23T13:32:45.938Z,87
2022-11-23T13:36:15.232Z,86
2022-11-23T13:39:36.457Z,86
2022-11-23T13:43:01.720Z,86
2022-11-23T13:46:27.023Z,86
2022-11-23T13:49:52.224Z,86
2022-11-23T13:53:17.534Z,87
2022-11-23T13:56:42.811Z,86
2022-11-23T14:00:08.086Z,86
2022-11-23T14:03:33.325Z,86
2022-11-23T14:06:58.591Z,86
2022-11-23T14:10:23.863Z,86
2022-11-23T14:13:49.142Z,86
2022-11-23T14:17:14.432Z,86
2022-11-23T14:20:39.682Z,86
2022-11-23T14:24:04.927Z,86
2022-11-23T14:27:46.560Z,86
2022-11-23T15:04:17.290Z,85
2022-11-23T15:07:42.452Z,85
2022-11-23T15:11:07.634Z,86
2022-11-23T15:14:33.171Z,85
2022-11-23T15:17:58.204Z,86
2022-11-23T15:21:27.128Z,86
2022-11-23T15:24:48.682Z,84
2022-11-23T15:28:13.965Z,83
2022-11-23T15:31:39.200Z,83
2022-11-23T15:35:04.427Z,83
2022-11-23T15:38:29.696Z,82
2022-11-23T15:41:54.898Z,84
2022-11-23T15:45:20.142Z,86
2022-11-23T15:48:45.387Z,87
2022-11-23T15:52:10.648Z,85
2022-11-23T15:55:35.957Z,84
2022-11-23T15:59:01.146Z,85
2022-11-23T16:02:26.479Z,83
2022-11-23T16:05:54.471Z,82
2022-11-23T16:09:43.204Z,83
2022-11-23T16:12:42.254Z,86
2022-11-23T16:16:07.477Z,85
2022-11-23T16:19:32.989Z,85
2022-11-23T16:22:57.966Z,85
2022-11-23T16:26:23.258Z,85
2022-11-23T16:29:48.505Z,86
2022-11-23T16:33:13.754Z,86
2022-11-23T16:36:38.977Z,85
2022-11-23T16:40:04.285Z,84
2022-11-23T16:43:29.536Z,86
2022-11-23T16:46:54.870Z,88
2022-11-23T16:50:20.089Z,88
2022-11-23T16:54:12.282Z,88
2022-11-23T16:57:10.671Z,87
2022-11-23T17:00:35.990Z,86
2022-11-23T17:04:01.403Z,87
2022-11-23T17:07:26.576Z,89
2022-11-23T17:10:51.811Z,89
2022-11-23T17:14:19.112Z,89
2022-11-23T17:17:42.429Z,89
2022-11-23T17:21:07.676Z,88
2022-11-23T17:24:33.066Z,86
2022-11-23T17:27:58.152Z,85
2022-11-23T17:31:23.465Z,84
2022-11-23T17:34:48.649Z,84
2022-11-23T17:38:13.925Z,87
2022-11-23T17:41:39.153Z,89
2022-11-23T17:45:04.516Z,89
2022-11-23T17:48:29.791Z,88
2022-11-23T17:51:55.047Z,88
2022-11-23T17:55:20.409Z,88
2022-11-23T17:58:45.587Z,88
2022-11-23T18:02:10.834Z,87
2022-11-23T18:05:36.042Z,85
2022-11-23T18:09:01.273Z,87
2022-11-23T18:12:26.537Z,85
2022-11-23T18:15:51.774Z,84
2022-11-23T18:19:16.931Z,86
2022-11-23T18:22:42.185Z,85
2022-11-23T18:26:07.434Z,84
2022-11-23T18:29:32.904Z,84
2022-11-23T18:32:57.897Z,84
2022-11-23T18:36:23.113Z,85
2022-11-23T18:39:48.323Z,85
2022-11-23T18:43:13.543Z,84
2022-11-23T18:46:38.880Z,85
2022-11-23T18:50:06.595Z,85
2022-11-23T18:53:29.209Z,86
2022-11-23T18:56:54.464Z,86
2022-11-23T19:00:19.797Z,86
2022-11-23T19:03:45.205Z,86
2022-11-23T19:07:10.420Z,86
2022-11-23T19:10:35.618Z,85
2022-11-23T19:14:00.870Z,84
2022-11-23T19:17:26.154Z,83
2022-11-23T19:20:51.400Z,83
2022-11-23T19:24:16.636Z,83
2022-11-23T19:27:41.919Z,84
2022-11-23T19:31:07.270Z,85
2022-11-23T19:34:32.488Z,86
2022-11-23T19:37:57.724Z,86
2022-11-23T19:41:26.718Z,88
2022-11-23T19:44:48.182Z,88
2022-11-23T19:48:13.448Z,88
2022-11-23T19:51:38.810Z,88
2022-11-23T19:55:04.074Z,88
2022-11-23T19:58:29.336Z,88
2022-11-23T20:01:54.673Z,89
2022-11-23T20:05:19.915Z,88
2022-11-23T20:08:45.162Z,88
2022-11-23T20:12:10.461Z,87
2022-11-23T20:15:35.668Z,86
2022-11-23T20:19:00.904Z,86
2022-11-23T20:22:26.167Z,86
2022-11-23T20:25:51.412Z,88
2022-11-23T20:29:16.692Z,89
2022-11-23T20:32:41.912Z,90
2022-11-23T20:36:07.129Z,89
2022-11-23T20:39:32.431Z,88
2022-11-23T20:42:57.690Z,87
2022-11-23T20:46:38.542Z,87
2022-11-23T20:49:48.166Z,87
2022-11-23T20:53:13.391Z,87
2022-11-23T20:56:38.604Z,87
2022-11-23T21:00:03.812Z,86
2022-11-23T21:03:29.041Z,86
2022-11-23T21:06:54.238Z,86
2022-11-23T21:10:19.446Z,85
2022-11-23T21:13:49.447Z,85
2022-11-23T21:17:09.880Z,85
2022-11-23T21:20:36.737Z,86
2022-11-23T21:24:00.645Z,87
2022-11-23T21:27:25.858Z,87
2022-11-23T21:30:51.057Z,87
2022-11-23T21:34:16.277Z,85
2022-11-23T21:37:41.535Z,85
2022-11-23T21:41:06.711Z,85
2022-11-23T21:44:32.325Z,85
2022-11-23T21:47:57.166Z,86
2022-11-23T21:51:22.388Z,86
2022-11-23T21:54:49.204Z,87
2022-11-23T21:58:12.822Z,88
2022-11-23T22:01:38.047Z,87
2022-11-23T22:05:03.246Z,89
2022-11-23T22:08:29.370Z,90
2022-11-23T22:11:53.697Z,90
2022-11-23T22:15:18.907Z,90
2022-11-23T22:18:44.129Z,91
2022-11-23T22:22:09.338Z,90
2022-11-23T22:25:34.530Z,91
2022-11-23T22:28:59.790Z,90
2022-11-23T22:32:24.981Z,90
2022-11-23T22:35:50.191Z,91
2022-11-23T22:39:15.427Z,91
2022-11-23T22:42:40.683Z,91
2022-11-23T22:46:06.017Z,91
2022-11-23T22:49:31.096Z,91
2022-11-23T22:52:56.322Z,91
2022-11-23T22:56:21.529Z,91
2022-11-23T22:59:46.745Z,91
2022-11-23T23:03:12.136Z,92
2022-11-23T23:06:37.190Z,92
2022-11-23T23:10:02.400Z,92
2022-11-23T23:13:27.608Z,92
2022-11-23T23:16:52.877Z,92
2022-11-23T23:20:18.058Z,92
2022-11-23T23:23:43.271Z,93
2022-11-23T23:27:08.532Z,93
2022-11-23T23:30:33.741Z,93
2022-11-23T23:33:58.940Z,93
2022-11-23T23:37:24.177Z,93
2022-11-23T23:40:49.359Z,93
2022-11-23T23:44:14.572Z,94
2022-11-23T23:47:39.807Z,93
2022-11-23T23:51:05.030Z,93
2022-11-23T23:54:30.278Z,93
2022-11-23T23:57:55.491Z,92
